Romulus, Alabama
Current Conditions -  °F | °C
As of 7:53 AM on Wednesday 28 Jan 2015 (Local Time) from KTCL Reporting Station
Clear Clear  
Wind Chill:   Ceiling: Unl
Heat Index:   Visibility: 8mi
Dew Point: -1°   Wind: 3mph
Humidity: 82%   Direction: 30°NNE
Pressure: 30.32"   Gusts: NA
Location:  33.2658°N, 87.7278°W
Report Text: KTCL 281353Z 03003KT 8SM CLR 02/M01 A3032 RMK AO2 SLP266 T00171011
Loading
Personal Weather Stations






























Interactive Weather Map New forecast layout! Learn more

10-Day Weather Forecast

Advertisements
Track Severe Weather on mobile